Time;durP1;ratioP1;P1;durP2;ratioP2;P2;SDS_P1;SDS_P2;PMS_P1;PMS_P2;Temp;Humidity;BMP_temperature;BMP_pressure;BME280_temperature;BME280_humidity;BME280_pressure;Samples;Min_cycle;Max_cycle;Signal;HPM_P1;HPM_P2
2021/09/18 00:01:18;;;;;;;30.97;25.13;;;16.00;99.90;;;;;;4997168;28;20192;-72
2021/09/18 00:03:43;;;;;;;30.43;25.70;;;15.90;99.90;;;;;;5014443;28;20176;-72
2021/09/18 00:06:10;;;;;;;28.10;25.10;;;15.70;99.90;;;;;;5015685;28;20189;-71
2021/09/18 00:08:35;;;;;;;28.40;25.40;;;15.60;99.90;;;;;;5015059;28;20633;-72
2021/09/18 00:11:01;;;;;;;27.20;23.63;;;15.50;99.90;;;;;;5014869;28;20487;-71
2021/09/18 00:13:26;;;;;;;27.47;24.53;;;15.50;99.90;;;;;;5014782;28;20538;-72
2021/09/18 00:15:52;;;;;;;28.03;25.03;;;15.50;99.90;;;;;;5016578;28;20263;-72
2021/09/18 00:18:18;;;;;;;31.40;25.57;;;15.60;99.90;;;;;;5015046;28;20207;-71
2021/09/18 00:20:44;;;;;;;28.90;24.47;;;15.50;99.90;;;;;;5014029;28;20434;-72
2021/09/18 00:23:09;;;;;;;27.10;24.37;;;15.50;99.90;;;;;;5015026;28;20175;-71
2021/09/18 00:25:35;;;;;;;26.60;23.77;;;15.50;99.90;;;;;;5014960;28;20212;-71
2021/09/18 00:28:00;;;;;;;30.10;26.20;;;15.50;99.90;;;;;;5014498;28;20191;-71
2021/09/18 00:30:26;;;;;;;31.13;27.80;;;15.50;99.90;;;;;;5014196;28;20757;-72
2021/09/18 00:32:51;;;;;;;29.30;26.07;;;15.50;99.90;;;;;;5015626;28;20703;-72
2021/09/18 00:35:17;;;;;;;27.40;24.57;;;15.50;99.90;;;;;;5016148;28;20198;-71
2021/09/18 00:37:43;;;;;;;30.13;26.90;;;15.50;99.90;;;;;;5016999;28;20219;-71
2021/09/18 00:40:10;;;;;;;29.35;25.90;;;15.60;99.90;;;;;;5017274;28;20470;-72
2021/09/18 00:42:36;;;;;;;28.33;25.47;;;15.60;99.90;;;;;;5019827;28;20194;-71
2021/09/18 00:45:02;;;;;;;29.50;26.07;;;15.60;99.90;;;;;;5041532;28;20426;-70
2021/09/18 00:47:28;;;;;;;29.00;24.23;;;15.60;99.90;;;;;;5032349;28;20238;-71
2021/09/18 00:49:53;;;;;;;28.17;25.20;;;15.60;99.90;;;;;;5035979;28;20402;-70
2021/09/18 00:52:19;;;;;;;29.93;26.07;;;15.60;99.90;;;;;;5033733;28;20211;-70
2021/09/18 00:54:49;;;;;;;32.80;27.53;;;15.60;99.90;;;;;;5016179;28;20179;-70
2021/09/18 00:57:16;;;;;;;32.70;28.23;;;15.60;99.90;;;;;;5035336;28;20194;-71
2021/09/18 00:59:43;;;;;;;32.20;26.50;;;15.60;99.90;;;;;;5016655;28;20414;-70
2021/09/18 01:02:09;;;;;;;30.80;26.13;;;15.50;99.90;;;;;;5033558;28;20475;-71
2021/09/18 01:04:35;;;;;;;29.43;25.80;;;15.50;99.90;;;;;;5032580;28;20499;-70
2021/09/18 01:07:01;;;;;;;30.70;26.07;;;15.50;99.90;;;;;;5033910;28;21004;-70
2021/09/18 01:09:28;;;;;;;29.70;25.20;;;15.50;99.90;;;;;;5034738;28;20417;-70
2021/09/18 01:11:54;;;;;;;29.83;24.93;;;15.50;99.90;;;;;;5034163;28;20198;-71
2021/09/18 01:14:19;;;;;;;27.83;23.53;;;15.50;99.90;;;;;;5033765;28;20406;-70
2021/09/18 01:16:45;;;;;;;30.07;25.00;;;15.50;99.90;;;;;;5037715;28;20189;-71
2021/09/18 01:19:10;;;;;;;29.80;23.47;;;15.50;99.90;;;;;;5036681;28;20202;-71
2021/09/18 01:21:36;;;;;;;28.63;25.53;;;15.50;99.90;;;;;;5037131;28;20249;-71
2021/09/18 01:24:01;;;;;;;29.50;24.83;;;15.40;99.90;;;;;;5037510;28;20194;-71
2021/09/18 01:26:29;;;;;;;26.73;23.30;;;15.30;99.90;;;;;;5035293;28;20516;-71
2021/09/18 01:28:55;;;;;;;26.30;23.57;;;15.30;99.90;;;;;;5036665;28;20266;-70
2021/09/18 01:31:20;;;;;;;32.33;26.23;;;15.40;99.90;;;;;;5036719;28;20776;-71
2021/09/18 01:33:49;;;;;;;30.07;26.13;;;15.40;99.90;;;;;;5037011;28;20551;-71
2021/09/18 01:36:14;;;;;;;29.53;24.57;;;15.40;99.90;;;;;;5034550;28;20175;-71
2021/09/18 01:38:40;;;;;;;27.53;24.57;;;15.40;99.90;;;;;;5036465;28;20456;-71
2021/09/18 01:41:05;;;;;;;30.77;24.77;;;15.50;99.90;;;;;;5036550;28;20198;-71
2021/09/18 01:43:31;;;;;;;27.40;23.50;;;15.50;99.90;;;;;;5036444;28;20174;-71
2021/09/18 01:45:56;;;;;;;28.37;25.47;;;15.50;99.90;;;;;;5035872;28;20664;-71
2021/09/18 01:48:22;;;;;;;25.80;23.00;;;15.60;99.90;;;;;;5035274;28;20175;-71
2021/09/18 01:50:55;;;;;;;26.27;23.23;;;15.60;99.90;;;;;;5036625;28;20297;-72
2021/09/18 01:53:22;;;;;;;25.80;21.87;;;15.60;99.90;;;;;;5036899;28;20175;-72
2021/09/18 01:55:49;;;;;;;24.47;21.83;;;15.60;99.90;;;;;;5036519;28;20401;-71
2021/09/18 01:58:15;;;;;;;26.93;24.23;;;15.60;99.90;;;;;;5034528;28;20511;-71
2021/09/18 02:00:55;;;;;;;25.30;22.70;;;15.60;99.90;;;;;;5036069;28;20464;-72
2021/09/18 02:03:21;;;;;;;25.57;22.27;;;15.70;99.90;;;;;;5036464;28;20405;-70
2021/09/18 02:05:47;;;;;;;24.30;21.70;;;15.70;99.90;;;;;;5036482;28;20410;-71
2021/09/18 02:08:13;;;;;;;23.70;21.30;;;15.70;99.90;;;;;;5030102;28;20180;-70
2021/09/18 02:10:39;;;;;;;31.00;26.70;;;15.70;99.90;;;;;;5016112;28;20461;-71
2021/09/18 02:13:08;;;;;;;29.50;25.07;;;15.70;99.90;;;;;;5016141;28;20821;-71
2021/09/18 02:15:34;;;;;;;25.57;22.87;;;15.70;99.90;;;;;;5015845;28;20614;-71
2021/09/18 02:18:00;;;;;;;26.03;23.43;;;15.60;99.90;;;;;;5016224;28;20458;-71
2021/09/18 02:20:27;;;;;;;28.60;24.13;;;15.60;99.90;;;;;;5015979;28;20803;-70
2021/09/18 02:22:53;;;;;;;27.00;23.07;;;15.60;99.90;;;;;;5015771;28;20265;-71
2021/09/18 02:25:19;;;;;;;25.60;23.00;;;15.70;99.90;;;;;;5015596;28;20489;-72
2021/09/18 02:27:46;;;;;;;24.97;22.00;;;15.60;99.90;;;;;;5016039;28;20423;-71
2021/09/18 02:30:15;;;;;;;28.20;22.60;;;15.70;99.90;;;;;;5016634;28;20342;-71
2021/09/18 02:32:41;;;;;;;26.17;23.50;;;15.70;99.90;;;;;;5015634;28;20419;-71
2021/09/18 02:35:10;;;;;;;26.60;23.73;;;15.70;99.90;;;;;;5019684;28;20426;-71
2021/09/18 02:37:36;;;;;;;25.70;22.73;;;15.70;99.90;;;;;;5041786;28;20279;-71
2021/09/18 02:40:05;;;;;;;28.07;22.67;;;15.70;99.90;;;;;;5041780;28;20425;-71
2021/09/18 02:42:31;;;;;;;25.60;22.97;;;15.70;99.90;;;;;;5017684;28;20502;-71
2021/09/18 02:44:57;;;;;;;26.43;23.73;;;15.70;99.90;;;;;;5035371;28;20483;-72
2021/09/18 02:47:22;;;;;;;27.63;24.73;;;15.60;99.90;;;;;;5035477;28;20402;-72
2021/09/18 02:49:48;;;;;;;26.70;23.50;;;15.60;99.90;;;;;;5033860;28;20193;-72
2021/09/18 02:52:13;;;;;;;25.37;22.77;;;15.50;99.90;;;;;;5034682;28;20265;-71
2021/09/18 02:54:39;;;;;;;26.17;23.37;;;15.50;99.90;;;;;;5032109;28;20187;-71
2021/09/18 02:57:04;;;;;;;25.70;22.90;;;15.50;99.90;;;;;;5035064;28;20187;-71
2021/09/18 02:59:30;;;;;;;26.20;23.00;;;15.50;99.90;;;;;;5035127;28;20171;-71
2021/09/18 03:01:56;;;;;;;26.57;23.80;;;15.50;99.90;;;;;;5035511;28;20293;-71
2021/09/18 03:04:22;;;;;;;25.70;23.00;;;15.40;99.90;;;;;;5026822;28;20633;-72
2021/09/18 03:06:47;;;;;;;26.57;23.60;;;15.40;99.90;;;;;;5015971;28;20417;-72
2021/09/18 03:09:13;;;;;;;25.60;22.97;;;15.40;99.90;;;;;;5015328;28;20680;-72
2021/09/18 03:11:38;;;;;;;26.17;22.93;;;15.40;99.90;;;;;;5015608;28;20206;-71
2021/09/18 03:14:04;;;;;;;25.70;22.93;;;15.40;99.90;;;;;;4997809;28;20659;-71
2021/09/18 03:16:29;;;;;;;26.80;23.90;;;15.40;99.90;;;;;;4997812;28;20202;-71
2021/09/18 03:18:55;;;;;;;27.17;24.23;;;15.30;99.90;;;;;;5014687;28;20269;-71
2021/09/18 03:21:20;;;;;;;26.40;23.60;;;15.20;99.90;;;;;;5015801;28;20191;-71
2021/09/18 03:23:46;;;;;;;29.97;23.57;;;15.00;99.90;;;;;;5014688;28;20230;-72
2021/09/18 03:26:12;;;;;;;28.43;25.50;;;14.90;99.90;;;;;;5015996;28;20182;-71
2021/09/18 03:28:37;;;;;;;30.00;24.40;;;14.90;99.90;;;;;;5015143;28;20238;-72
2021/09/18 03:31:03;;;;;;;26.97;24.10;;;14.80;99.90;;;;;;4997313;28;20195;-71
2021/09/18 03:33:28;;;;;;;28.13;25.23;;;14.70;99.90;;;;;;4997707;28;20557;-71
2021/09/18 03:35:54;;;;;;;28.10;25.13;;;14.60;99.90;;;;;;5015397;28;20183;-71
2021/09/18 03:38:20;;;;;;;30.17;26.47;;;14.60;99.90;;;;;;4997626;28;20203;-71
2021/09/18 03:40:45;;;;;;;30.03;26.13;;;14.60;99.90;;;;;;5014429;28;20406;-71
2021/09/18 03:43:11;;;;;;;29.03;24.17;;;14.60;99.90;;;;;;5014420;28;20194;-71
2021/09/18 03:45:36;;;;;;;29.60;26.20;;;14.60;99.90;;;;;;5014644;28;20192;-72
2021/09/18 03:48:03;;;;;;;30.53;25.37;;;14.60;99.90;;;;;;5016139;28;20528;-71
2021/09/18 03:50:28;;;;;;;31.00;25.77;;;14.70;99.90;;;;;;5014096;28;20612;-71
2021/09/18 03:52:54;;;;;;;28.67;25.57;;;14.70;99.90;;;;;;5015200;28;20503;-71
2021/09/18 03:55:19;;;;;;;30.13;25.60;;;14.60;99.90;;;;;;5015956;28;20562;-72
2021/09/18 03:57:45;;;;;;;27.20;24.13;;;14.60;99.90;;;;;;5016866;28;20210;-71
2021/09/18 04:00:11;;;;;;;30.43;26.70;;;14.50;99.90;;;;;;5016149;28;20532;-71
2021/09/18 04:02:36;;;;;;;29.17;25.10;;;14.60;99.90;;;;;;5033721;28;20170;-71
2021/09/18 04:05:02;;;;;;;30.37;25.93;;;14.60;99.90;;;;;;5029580;28;20402;-71
2021/09/18 04:07:28;;;;;;;27.70;24.77;;;14.70;99.90;;;;;;5021980;28;20176;-71
2021/09/18 04:09:53;;;;;;;28.90;24.93;;;14.70;99.90;;;;;;5053940;28;20213;-71
2021/09/18 04:12:19;;;;;;;27.93;24.90;;;14.70;99.90;;;;;;5057033;28;20282;-71
2021/09/18 04:14:45;;;;;;;27.47;24.70;;;14.80;99.90;;;;;;5036342;28;20178;-71
2021/09/18 04:17:10;;;;;;;31.30;26.43;;;14.80;99.90;;;;;;5034040;28;20183;-72
2021/09/18 04:19:36;;;;;;;27.70;24.70;;;14.80;99.90;;;;;;5031894;28;20278;-71
2021/09/18 04:22:02;;;;;;;28.40;25.40;;;14.70;99.90;;;;;;5033333;28;20202;-71
2021/09/18 04:24:28;;;;;;;26.57;23.73;;;14.70;99.90;;;;;;5032398;28;20175;-71
2021/09/18 04:26:54;;;;;;;24.33;21.70;;;14.70;99.90;;;;;;5033743;28;20519;-70
2021/09/18 04:29:19;;;;;;;26.47;23.43;;;14.70;99.90;;;;;;5032161;28;20273;-71
2021/09/18 04:31:45;;;;;;;26.93;23.60;;;14.70;99.90;;;;;;5033865;28;20430;-71
2021/09/18 04:34:11;;;;;;;26.77;24.07;;;14.70;99.90;;;;;;5033582;28;20194;-71
2021/09/18 04:36:36;;;;;;;27.43;24.47;;;14.70;99.90;;;;;;5026770;28;20192;-73
2021/09/18 04:39:03;;;;;;;27.40;24.50;;;14.60;99.90;;;;;;5021471;28;20212;-70
2021/09/18 04:41:29;;;;;;;32.30;26.07;;;14.60;99.90;;;;;;5014769;28;20207;-72
2021/09/18 04:43:55;;;;;;;26.67;23.83;;;14.50;99.90;;;;;;5013983;28;20422;-71
2021/09/18 04:46:21;;;;;;;28.63;25.53;;;14.50;99.90;;;;;;5014441;28;20203;-71
2021/09/18 04:48:46;;;;;;;25.50;22.70;;;14.50;99.90;;;;;;5014868;28;20407;-71
2021/09/18 04:51:12;;;;;;;28.70;25.60;;;14.50;99.90;;;;;;5017729;28;20438;-71
2021/09/18 04:53:38;;;;;;;29.83;26.67;;;14.50;99.90;;;;;;5018819;28;20189;-71
2021/09/18 04:56:04;;;;;;;28.10;25.20;;;14.50;99.90;;;;;;5018216;28;20418;-71
2021/09/18 04:58:30;;;;;;;29.57;25.87;;;14.40;99.90;;;;;;5017849;28;20210;-70
2021/09/18 05:00:56;;;;;;;32.20;25.83;;;14.30;99.90;;;;;;5000475;28;20206;-71
2021/09/18 05:03:22;;;;;;;34.60;29.40;;;14.30;99.90;;;;;;5000187;28;20524;-71
2021/09/18 05:05:47;;;;;;;34.10;28.83;;;14.20;99.90;;;;;;5000542;28;20514;-71
2021/09/18 05:08:13;;;;;;;35.40;28.67;;;14.10;99.90;;;;;;5016157;28;20263;-71
2021/09/18 05:10:39;;;;;;;36.30;28.23;;;14.00;99.90;;;;;;5017650;28;20645;-71
2021/09/18 05:13:04;;;;;;;36.73;29.40;;;14.00;99.90;;;;;;5017202;28;20415;-71
2021/09/18 05:15:30;;;;;;;37.50;28.70;;;13.90;99.90;;;;;;5018390;28;20184;-72
2021/09/18 05:17:56;;;;;;;33.80;27.87;;;13.90;99.90;;;;;;5016853;28;20553;-72
2021/09/18 05:20:21;;;;;;;32.70;26.50;;;14.00;99.90;;;;;;5016806;28;20552;-71
2021/09/18 05:22:47;;;;;;;34.90;28.87;;;14.10;99.90;;;;;;5017383;28;20164;-71
2021/09/18 05:25:12;;;;;;;34.17;29.07;;;14.20;99.90;;;;;;5018494;28;20187;-71
2021/09/18 05:27:38;;;;;;;31.20;27.47;;;14.30;99.90;;;;;;5018496;28;20175;-72
2021/09/18 05:30:05;;;;;;;33.00;27.43;;;14.30;99.90;;;;;;5036823;28;20171;-72
2021/09/18 05:32:31;;;;;;;34.37;27.90;;;14.40;99.90;;;;;;5036920;28;20178;-72
2021/09/18 05:34:57;;;;;;;32.17;25.53;;;14.50;99.90;;;;;;5036336;28;20405;-72
2021/09/18 05:37:22;;;;;;;30.10;26.43;;;14.50;99.90;;;;;;5031016;28;20289;-71
2021/09/18 05:39:48;;;;;;;31.67;27.53;;;14.50;99.90;;;;;;5016605;28;20175;-71
2021/09/18 05:42:14;;;;;;;28.20;25.00;;;14.60;99.90;;;;;;5029667;28;20226;-71
2021/09/18 05:44:40;;;;;;;33.37;26.00;;;14.60;99.90;;;;;;5028030;28;20218;-72
2021/09/18 05:47:05;;;;;;;29.63;26.33;;;14.70;99.90;;;;;;5025669;28;20413;-70
2021/09/18 05:49:31;;;;;;;31.40;24.37;;;14.70;99.90;;;;;;5035967;28;20611;-72
2021/09/18 05:51:57;;;;;;;31.73;25.37;;;14.70;99.90;;;;;;5036050;28;20222;-72
2021/09/18 05:54:23;;;;;;;28.90;24.37;;;14.70;99.90;;;;;;5036677;28;20185;-71
2021/09/18 05:56:48;;;;;;;27.10;24.13;;;14.70;99.90;;;;;;5035784;28;20410;-72
2021/09/18 05:59:14;;;;;;;29.40;26.20;;;14.70;99.90;;;;;;5036210;28;20544;-72
2021/09/18 06:01:40;;;;;;;27.60;24.60;;;14.80;99.90;;;;;;5036545;28;20197;-71
2021/09/18 06:04:06;;;;;;;28.10;24.47;;;14.80;99.90;;;;;;5036534;28;20179;-71
2021/09/18 06:06:31;;;;;;;31.90;25.70;;;14.80;99.90;;;;;;5036834;28;20509;-71
2021/09/18 06:08:57;;;;;;;29.57;24.57;;;14.80;99.90;;;;;;5035063;28;20214;-72
2021/09/18 06:11:23;;;;;;;35.30;25.93;;;14.80;99.90;;;;;;5032465;28;20222;-72
2021/09/18 06:13:48;;;;;;;29.13;25.97;;;14.80;99.90;;;;;;5027885;28;20199;-72
2021/09/18 06:16:14;;;;;;;29.98;26.65;;;14.80;99.90;;;;;;5016570;28;20411;-70
2021/09/18 06:18:41;;;;;;;29.43;25.77;;;14.90;99.90;;;;;;5024180;28;20250;-71
2021/09/18 06:21:07;;;;;;;30.50;25.27;;;14.90;99.90;;;;;;5027196;28;20495;-71
2021/09/18 06:23:36;;;;;;;30.57;24.70;;;14.90;99.90;;;;;;5017176;28;20908;-72
2021/09/18 06:26:01;;;;;;;30.77;27.58;;;14.90;99.90;;;;;;5020190;28;20451;-70
2021/09/18 06:28:27;;;;;;;29.77;26.57;;;15.00;99.90;;;;;;5028487;28;20178;-71
2021/09/18 06:30:52;;;;;;;27.97;24.50;;;15.00;99.90;;;;;;5034586;28;20198;-71
2021/09/18 06:33:19;;;;;;;32.50;25.03;;;15.00;99.90;;;;;;5028456;28;20681;-71
2021/09/18 06:35:44;;;;;;;28.60;24.77;;;15.00;99.90;;;;;;5027143;28;20183;-70
2021/09/18 06:38:11;;;;;;;26.40;23.53;;;15.00;99.90;;;;;;5023839;28;20956;-71
2021/09/18 06:40:36;;;;;;;29.53;26.33;;;15.10;99.90;;;;;;5034762;28;20210;-71
2021/09/18 06:43:02;;;;;;;31.53;24.43;;;15.10;99.90;;;;;;5011056;28;20769;-71
2021/09/18 06:45:27;;;;;;;28.83;25.33;;;15.10;99.90;;;;;;5015534;28;20213;-72
2021/09/18 06:47:56;;;;;;;28.77;25.73;;;15.10;99.90;;;;;;5024499;28;20218;-71
2021/09/18 06:50:21;;;;;;;30.17;26.03;;;15.20;99.90;;;;;;5021587;28;20211;-71
2021/09/18 06:52:47;;;;;;;32.53;25.70;;;15.10;99.90;;;;;;5026345;28;20994;-70
2021/09/18 06:55:12;;;;;;;30.03;25.70;;;15.20;99.90;;;;;;5015981;28;20190;-71
2021/09/18 06:57:38;;;;;;;29.57;25.67;;;15.30;99.90;;;;;;5036795;28;20202;-72
2021/09/18 07:00:06;;;;;;;31.23;25.60;;;15.30;99.90;;;;;;5027967;28;20195;-70
2021/09/18 07:02:32;;;;;;;32.17;25.33;;;15.40;99.90;;;;;;5027807;28;20425;-71
2021/09/18 07:05:00;;;;;;;31.13;26.90;;;15.40;99.90;;;;;;5023848;28;21021;-71
2021/09/18 07:07:28;;;;;;;31.50;25.97;;;15.50;99.90;;;;;;5024634;28;20190;-72
2021/09/18 07:09:54;;;;;;;32.30;26.35;;;15.50;99.90;;;;;;5016758;28;20908;-71
2021/09/18 07:12:20;;;;;;;31.97;26.30;;;15.50;99.90;;;;;;5025188;28;20599;-71
2021/09/18 07:14:45;;;;;;;33.10;26.47;;;15.50;99.90;;;;;;5006127;28;20536;-70
2021/09/18 07:17:11;;;;;;;29.53;26.20;;;15.60;99.90;;;;;;5019374;28;20287;-72
2021/09/18 07:19:36;;;;;;;30.00;26.30;;;15.60;99.90;;;;;;5029715;28;20226;-71
2021/09/18 07:22:02;;;;;;;29.43;25.60;;;15.70;99.90;;;;;;5040812;28;20222;-71
2021/09/18 07:24:32;;;;;;;29.60;26.47;;;15.70;99.90;;;;;;5040951;28;20179;-71
2021/09/18 07:27:00;;;;;;;31.93;27.27;;;15.80;99.90;;;;;;5028672;28;20425;-72
2021/09/18 07:29:26;;;;;;;34.17;28.50;;;15.80;99.90;;;;;;5047576;28;20489;-71
2021/09/18 07:31:52;;;;;;;31.90;27.30;;;15.90;99.90;;;;;;5048497;28;20448;-70
2021/09/18 07:34:18;;;;;;;30.33;27.00;;;15.90;99.90;;;;;;5043916;28;20181;-71
2021/09/18 07:36:43;;;;;;;31.90;26.87;;;16.00;99.90;;;;;;4997490;28;20531;-71
2021/09/18 07:39:09;;;;;;;32.90;25.60;;;16.00;99.90;;;;;;5024787;28;20234;-71
2021/09/18 07:41:34;;;;;;;31.63;27.27;;;16.10;99.90;;;;;;5029582;28;20229;-70
2021/09/18 07:44:01;;;;;;;31.30;28.00;;;16.10;99.90;;;;;;5029297;28;20202;-71
2021/09/18 07:46:28;;;;;;;32.93;27.13;;;16.20;99.90;;;;;;5028519;28;20253;-71
2021/09/18 07:48:55;;;;;;;32.97;28.50;;;16.20;99.90;;;;;;5031251;28;20450;-72
2021/09/18 07:51:20;;;;;;;34.40;29.30;;;16.30;99.90;;;;;;5047803;28;20472;-72
2021/09/18 07:53:46;;;;;;;35.80;29.87;;;16.30;99.90;;;;;;5030223;28;20491;-71
2021/09/18 07:56:11;;;;;;;34.37;28.93;;;16.40;99.90;;;;;;5029274;28;20703;-71
2021/09/18 07:58:37;;;;;;;34.00;29.80;;;16.40;99.90;;;;;;5028410;28;20348;-73
2021/09/18 08:01:04;;;;;;;34.10;30.23;;;16.50;99.90;;;;;;5032817;28;20622;-73
2021/09/18 08:03:30;;;;;;;38.13;31.30;;;16.50;99.90;;;;;;5029058;28;20203;-70
2021/09/18 08:05:55;;;;;;;33.80;29.80;;;16.60;99.90;;;;;;5027202;28;20908;-71
2021/09/18 08:08:21;;;;;;;35.07;30.13;;;16.60;99.90;;;;;;5027435;28;20210;-71
2021/09/18 08:10:46;;;;;;;46.77;35.13;;;16.70;99.90;;;;;;5028955;28;20650;-72
2021/09/18 08:13:12;;;;;;;37.67;32.20;;;16.80;99.90;;;;;;5029274;28;20219;-71
2021/09/18 08:15:38;;;;;;;42.80;36.40;;;16.90;99.90;;;;;;5026989;28;20309;-73
2021/09/18 08:18:06;;;;;;;46.17;38.20;;;16.90;99.90;;;;;;5023332;28;20226;-72
2021/09/18 08:20:34;;;;;;;50.33;38.10;;;16.90;99.90;;;;;;5020985;28;20325;-75
2021/09/18 08:22:59;;;;;;;49.10;37.57;;;17.00;99.90;;;;;;5027259;28;20570;-73
2021/09/18 08:25:25;;;;;;;49.17;38.37;;;17.10;99.90;;;;;;5029140;28;20500;-70
2021/09/18 08:27:57;;;;;;;45.63;38.00;;;17.20;99.90;;;;;;5028142;28;20879;-72
2021/09/18 08:30:23;;;;;;;43.90;35.97;;;17.30;99.90;;;;;;5029894;28;20476;-71
2021/09/18 08:32:49;;;;;;;48.60;39.57;;;17.40;99.90;;;;;;5031162;28;20444;-71
2021/09/18 08:35:15;;;;;;;47.40;39.07;;;17.40;99.90;;;;;;5004615;28;20824;-70
2021/09/18 08:37:42;;;;;;;54.97;44.50;;;17.50;99.90;;;;;;5022055;28;20489;-73
2021/09/18 08:40:08;;;;;;;53.73;42.30;;;17.60;99.90;;;;;;5017665;28;20487;-71
2021/09/18 08:42:38;;;;;;;52.90;42.00;;;17.70;99.90;;;;;;5022450;28;20465;-72
2021/09/18 08:45:06;;;;;;;52.83;43.60;;;17.80;99.90;;;;;;5028381;28;20540;-72
2021/09/18 08:47:32;;;;;;;65.33;48.40;;;17.90;99.90;;;;;;5027747;28;20464;-71
2021/09/18 08:49:58;;;;;;;57.33;46.33;;;18.00;99.90;;;;;;5021638;28;21111;-71
2021/09/18 08:52:24;;;;;;;53.93;43.30;;;18.20;99.90;;;;;;5024935;28;20607;-72
2021/09/18 08:54:50;;;;;;;60.70;48.33;;;18.30;99.90;;;;;;5021460;28;20453;-71
2021/09/18 08:57:15;;;;;;;60.27;48.47;;;18.50;99.90;;;;;;5029864;28;20257;-72
2021/09/18 08:59:41;;;;;;;60.90;46.27;;;18.60;99.90;;;;;;5030234;28;20199;-71
2021/09/18 09:02:14;;;;;;;57.47;44.60;;;18.70;99.90;;;;;;5031483;28;20759;-71
2021/09/18 09:04:41;;;;;;;59.27;46.43;;;18.80;99.90;;;;;;5019545;28;20947;-71
2021/09/18 09:07:09;;;;;;;50.60;39.40;;;18.70;99.90;;;;;;5028376;28;20457;-71
2021/09/18 09:09:54;;;;;;;47.37;38.83;;;18.90;99.90;;;;;;5012753;28;20495;-72
2021/09/18 09:12:24;;;;;;;41.20;32.50;;;19.00;99.90;;;;;;5036279;28;20951;-72
2021/09/18 09:14:49;;;;;;;38.47;31.60;;;19.10;99.90;;;;;;5034311;28;20487;-72
2021/09/18 09:17:23;;;;;;;36.07;30.40;;;19.20;99.90;;;;;;5037117;28;20453;-72
2021/09/18 09:19:51;;;;;;;33.53;28.87;;;19.20;99.90;;;;;;5035293;28;20202;-73
2021/09/18 09:22:54;;;;;;;33.93;28.43;;;19.40;99.90;;;;;;5035674;28;20483;-73
2021/09/18 09:25:34;;;;;;;32.80;28.50;;;19.50;99.90;;;;;;5035413;28;20930;-72
2021/09/18 09:28:31;;;;;;;31.17;26.27;;;19.60;99.90;;;;;;5035153;28;20502;-72
2021/09/18 09:31:21;;;;;;;31.13;26.80;;;19.80;99.90;;;;;;5007842;28;20600;-73
2021/09/18 09:33:56;;;;;;;33.90;25.93;;;19.90;99.90;;;;;;5002463;28;21665;-72
2021/09/18 09:36:22;;;;;;;27.83;23.37;;;20.00;99.90;;;;;;5010593;28;20492;-73
2021/09/18 09:39:00;;;;;;;27.80;24.80;;;20.10;99.90;;;;;;5031502;28;20504;-73
2021/09/18 09:41:42;;;;;;;27.90;24.50;;;20.20;99.90;;;;;;4998066;28;20481;-73
2021/09/18 09:44:10;;;;;;;25.93;23.23;;;20.30;99.90;;;;;;5033864;28;20963;-73
2021/09/18 09:46:36;;;;;;;27.20;22.97;;;20.50;99.90;;;;;;5016374;28;20484;-73
2021/09/18 09:49:10;;;;;;;29.00;25.77;;;20.60;99.90;;;;;;5033589;28;20449;-72
2021/09/18 09:51:36;;;;;;;30.20;27.00;;;20.70;99.90;;;;;;5014816;28;20429;-72
2021/09/18 09:54:21;;;;;;;27.93;25.03;;;20.80;99.90;;;;;;5014785;28;20203;-72
2021/09/18 09:56:48;;;;;;;26.30;23.60;;;20.90;99.90;;;;;;4996590;28;20461;-72
2021/09/18 09:59:28;;;;;;;23.80;21.40;;;21.10;99.90;;;;;;5014823;28;20474;-72
2021/09/18 10:01:54;;;;;;;23.87;20.67;;;21.20;99.90;;;;;;5016065;28;20449;-72
2021/09/18 10:04:19;;;;;;;22.33;19.57;;;21.30;99.90;;;;;;4996690;28;20454;-71
2021/09/18 10:06:46;;;;;;;23.53;21.03;;;21.40;99.90;;;;;;5013974;28;20809;-71
2021/09/18 10:09:15;;;;;;;24.00;21.50;;;21.40;99.90;;;;;;5014133;28;20270;-72
2021/09/18 10:11:41;;;;;;;24.27;20.57;;;21.40;99.90;;;;;;5014382;28;20462;-72
2021/09/18 10:14:09;;;;;;;21.87;19.63;;;21.30;99.90;;;;;;5014009;28;20504;-71
2021/09/18 10:16:35;;;;;;;20.43;18.30;;;21.30;99.90;;;;;;5013960;28;20199;-72
2021/09/18 10:19:05;;;;;;;18.70;16.67;;;21.30;99.90;;;;;;5016784;28;20484;-71
2021/09/18 10:24:15;;;;;;;15.93;14.30;;;21.30;99.90;;;;;;5013812;28;20508;-73
2021/09/18 10:26:41;;;;;;;16.10;14.40;;;21.20;99.90;;;;;;5025893;28;20839;-72
2021/09/18 10:29:07;;;;;;;14.33;12.93;;;21.10;99.90;;;;;;5032194;28;20695;-72
2021/09/18 10:31:32;;;;;;;14.57;12.90;;;21.00;99.90;;;;;;5031802;28;20195;-71
2021/09/18 10:33:58;;;;;;;13.93;12.13;;;20.90;99.90;;;;;;5000516;28;20708;-71
2021/09/18 10:36:29;;;;;;;14.03;12.67;;;20.70;99.90;;;;;;5011176;28;20203;-73
2021/09/18 10:39:18;;;;;;;17.50;14.37;;;20.70;99.90;;;;;;5013329;28;20599;-73
2021/09/18 10:41:46;;;;;;;18.43;16.50;;;20.70;99.90;;;;;;5013767;28;20767;-72
2021/09/18 10:44:13;;;;;;;19.02;17.13;;;20.60;99.90;;;;;;5034231;28;20795;-72
2021/09/18 10:46:48;;;;;;;17.13;15.37;;;20.50;99.90;;;;;;5037439;28;20734;-72
2021/09/18 10:49:35;;;;;;;18.50;16.60;;;20.50;99.90;;;;;;5041894;28;20507;-73
2021/09/18 10:52:28;;;;;;;14.30;12.80;;;20.50;99.90;;;;;;5057078;28;20453;-72
2021/09/18 10:55:02;;;;;;;14.10;12.70;;;20.70;99.90;;;;;;5020289;28;20549;-72
2021/09/18 10:57:37;;;;;;;15.30;13.70;;;20.90;99.90;;;;;;5045680;28;20824;-72
2021/09/18 11:00:08;;;;;;;13.00;11.63;;;20.90;99.90;;;;;;5052997;28;20949;-72
2021/09/18 11:02:34;;;;;;;11.10;10.00;;;20.80;99.90;;;;;;5051585;28;20942;-71
2021/09/18 11:05:05;;;;;;;10.10;9.20;;;20.60;99.90;;;;;;5025322;28;20477;-72
2021/09/18 11:07:41;;;;;;;9.60;8.70;;;20.50;99.90;;;;;;5031982;28;20448;-71
2021/09/18 11:10:19;;;;;;;7.97;7.23;;;20.40;99.90;;;;;;5032235;28;20464;-71
2021/09/18 11:13:11;;;;;;;10.10;9.20;;;20.40;99.90;;;;;;5031503;28;20455;-71
2021/09/18 11:15:44;;;;;;;11.53;10.37;;;20.40;99.90;;;;;;5029659;28;20511;-72
2021/09/18 11:18:14;;;;;;;15.30;13.57;;;20.40;99.90;;;;;;5032262;28;20921;-73
2021/09/18 11:20:41;;;;;;;15.57;13.97;;;20.50;99.90;;;;;;5031379;28;20457;-72
2021/09/18 11:23:06;;;;;;;16.50;14.83;;;20.50;99.90;;;;;;5049420;28;20432;-72
2021/09/18 11:25:33;;;;;;;17.03;15.20;;;20.50;99.90;;;;;;5046186;28;20620;-70
2021/09/18 11:28:00;;;;;;;15.63;12.50;;;20.60;99.90;;;;;;5012969;28;20286;-72
2021/09/18 11:30:50;;;;;;;11.83;10.73;;;20.60;99.90;;;;;;4994678;28;20450;-72
2021/09/18 11:33:18;;;;;;;10.43;9.20;;;20.70;99.90;;;;;;5012260;28;20461;-72
2021/09/18 11:35:53;;;;;;;11.77;10.60;;;20.90;99.90;;;;;;4989765;28;20474;-72
2021/09/18 11:38:25;;;;;;;12.70;11.40;;;21.20;99.90;;;;;;5031111;28;20469;-72
2021/09/18 11:40:51;;;;;;;12.20;11.07;;;21.40;99.90;;;;;;5032375;28;20875;-72
2021/09/18 11:43:28;;;;;;;11.90;10.70;;;21.70;99.90;;;;;;5032105;28;20425;-73
2021/09/18 11:45:53;;;;;;;11.37;10.27;;;21.90;99.80;;;;;;5032352;28;20449;-72
2021/09/18 11:48:22;;;;;;;10.50;9.60;;;21.90;98.70;;;;;;5018429;28;20513;-72
2021/09/18 11:50:48;;;;;;;12.17;10.87;;;21.80;98.10;;;;;;5015628;28;20242;-72
2021/09/18 11:53:14;;;;;;;14.60;13.10;;;21.80;98.50;;;;;;5013024;28;20454;-72
2021/09/18 11:55:50;;;;;;;21.83;18.90;;;21.70;99.90;;;;;;5019793;28;20202;-72
2021/09/18 11:58:29;;;;;;;19.20;17.30;;;21.60;99.90;;;;;;5034995;28;20465;-72
2021/09/18 12:00:59;;;;;;;19.77;17.80;;;21.50;99.90;;;;;;5011963;28;20537;-72
2021/09/18 12:03:29;;;;;;;17.80;16.10;;;21.40;99.90;;;;;;5012054;28;20441;-71
2021/09/18 12:06:01;;;;;;;18.93;16.80;;;21.40;99.90;;;;;;5014589;28;20958;-73
2021/09/18 12:08:29;;;;;;;21.93;19.80;;;21.50;99.90;;;;;;5015139;28;20448;-72
2021/09/18 12:11:01;;;;;;;20.33;18.43;;;21.30;99.90;;;;;;4996692;28;20530;-72
2021/09/18 12:13:26;;;;;;;20.93;18.67;;;21.10;99.90;;;;;;5014764;28;20407;-72
2021/09/18 12:15:53;;;;;;;21.50;19.30;;;20.80;99.90;;;;;;5013885;28;20477;-72
2021/09/18 12:18:27;;;;;;;19.60;17.70;;;20.70;99.90;;;;;;5014047;28;20289;-72
2021/09/18 12:21:04;;;;;;;18.47;16.67;;;20.70;99.90;;;;;;5030886;28;20930;-73
2021/09/18 12:23:32;;;;;;;19.60;17.10;;;20.70;99.90;;;;;;5034306;28;20786;-72
2021/09/18 12:26:00;;;;;;;19.90;18.07;;;20.80;99.90;;;;;;5017068;28;20426;-73
2021/09/18 12:28:27;;;;;;;17.77;15.97;;;20.80;99.90;;;;;;5033798;28;20782;-73
2021/09/18 12:30:53;;;;;;;17.60;15.90;;;20.80;99.90;;;;;;5032460;28;20798;-72
2021/09/18 12:33:28;;;;;;;16.73;15.00;;;20.80;99.90;;;;;;5034371;28;20815;-73